Time;durP1;ratioP1;P1;durP2;ratioP2;P2;SDS_P1;SDS_P2;PMS_P1;PMS_P2;Temp;Humidity;BMP_temperature;BMP_pressure;BME280_temperature;BME280_humidity;BME280_pressure;Samples;Min_cycle;Max_cycle;Signal;HPM_P1;HPM_P2
2022/04/28 00:05:53;;;;;;;2.08;0.90;;;;;;;;;;21040293;28;20127;-84
2022/04/28 00:15:54;;;;;;;2.78;1.38;;;;;;;;;;21056544;28;20040;-84
2022/04/28 00:25:56;;;;;;;2.05;1.17;;;;;;;;;;21055932;28;20409;-83
2022/04/28 00:35:58;;;;;;;1.75;0.75;;;;;;;;;;21038160;28;20109;-83
2022/04/28 00:45:59;;;;;;;2.88;1.05;;;;;;;;;;21072003;28;20050;-84
2022/04/28 00:56:01;;;;;;;1.30;0.80;;;;;;;;;;21037783;28;20065;-84
2022/04/28 01:06:03;;;;;;;1.15;0.98;;;;;;;;;;21021186;28;20123;-84
2022/04/28 01:16:07;;;;;;;2.35;1.20;;;;;;;;;;21053362;28;20405;-84
2022/04/28 01:26:09;;;;;;;1.05;0.85;;;;;;;;;;21036352;28;20151;-84
2022/04/28 01:36:11;;;;;;;2.53;1.23;;;;;;;;;;21035770;28;20083;-84
2022/04/28 01:46:14;;;;;;;1.10;0.70;;;;;;;;;;21019213;28;20379;-84
2022/04/28 01:56:22;;;;;;;1.45;0.90;;;;;;;;;;21038856;28;20048;-84
2022/04/28 02:06:32;;;;;;;1.30;0.95;;;;;;;;;;21051716;28;20067;-84
2022/04/28 02:16:33;;;;;;;1.48;0.80;;;;;;;;;;21048874;28;20494;-84
2022/04/28 02:26:50;;;;;;;0.98;0.75;;;;;;;;;;21033964;28;20143;-84
2022/04/28 02:36:51;;;;;;;2.92;1.05;;;;;;;;;;21064392;28;20051;-84
2022/04/28 02:46:54;;;;;;;1.83;0.90;;;;;;;;;;21046944;28;20374;-84
2022/04/28 02:57:02;;;;;;;1.20;0.90;;;;;;;;;;21047158;28;20043;-84
2022/04/28 03:17:24;;;;;;;1.23;0.70;;;;;;;;;;21046895;28;20079;-84
2022/04/28 03:27:27;;;;;;;2.53;1.00;;;;;;;;;;21027174;28;20048;-84
2022/04/28 03:37:29;;;;;;;1.20;0.98;;;;;;;;;;21042582;28;20036;-84
2022/04/28 03:47:32;;;;;;;1.75;0.90;;;;;;;;;;21041664;28;20052;-85
2022/04/28 03:57:34;;;;;;;1.27;0.93;;;;;;;;;;21057791;28;20067;-84
2022/04/28 04:07:38;;;;;;;1.75;1.00;;;;;;;;;;21040315;28;20087;-84
2022/04/28 04:18:06;;;;;;;0.60;0.60;;;;;;;;;;21043083;28;20502;-84
2022/04/28 04:28:28;;;;;;;0.95;0.73;;;;;;;;;;21041582;28;20047;-84
2022/04/28 04:38:37;;;;;;;0.85;0.60;;;;;;;;;;21055120;28;20090;-84
2022/04/28 04:48:38;;;;;;;1.17;0.70;;;;;;;;;;21054385;28;20048;-84
2022/04/28 04:58:59;;;;;;;0.73;0.50;;;;;;;;;;21039758;28;20409;-84
2022/04/28 05:09:01;;;;;;;0.57;0.57;;;;;;;;;;21037124;28;20056;-84
2022/04/28 05:19:03;;;;;;;1.38;0.70;;;;;;;;;;21036890;28;20098;-84
2022/04/28 05:29:25;;;;;;;0.90;0.70;;;;;;;;;;21052779;28;20113;-84
2022/04/28 05:39:47;;;;;;;1.20;0.80;;;;;;;;;;21084950;28;20513;-84
2022/04/28 05:49:49;;;;;;;1.63;0.90;;;;;;;;;;21051621;28;20048;-84
2022/04/28 05:59:51;;;;;;;0.73;0.70;;;;;;;;;;21050620;28;20394;-84
2022/04/28 06:10:13;;;;;;;1.80;0.80;;;;;;;;;;21051696;28;20052;-84
2022/04/28 06:20:16;;;;;;;0.82;0.70;;;;;;;;;;21065117;28;20493;-84
2022/04/28 06:30:47;;;;;;;1.90;0.88;;;;;;;;;;21054458;28;20056;-84
2022/04/28 06:41:15;;;;;;;0.80;0.70;;;;;;;;;;21051250;28;20071;-84
2022/04/28 06:51:26;;;;;;;0.50;0.50;;;;;;;;;;21030639;28;20167;-85
2022/04/28 07:01:40;;;;;;;1.02;0.57;;;;;;;;;;21045166;28;20097;-84
2022/04/28 07:11:45;;;;;;;1.17;0.77;;;;;;;;;;21044882;28;20078;-84
2022/04/28 07:22:09;;;;;;;1.08;0.60;;;;;;;;;;21046795;28;20444;-84
2022/04/28 07:32:11;;;;;;;1.02;0.70;;;;;;;;;;21043375;28;20044;-84
2022/04/28 07:42:42;;;;;;;0.95;0.70;;;;;;;;;;21037492;28;20397;-84
2022/04/28 07:52:44;;;;;;;1.20;0.60;;;;;;;;;;21057222;28;20486;-84
2022/04/28 08:02:47;;;;;;;1.08;0.60;;;;;;;;;;21040315;28;20143;-83
2022/04/28 08:12:53;;;;;;;2.80;0.70;;;;;;;;;;21056264;28;20123;-84
2022/04/28 08:23:30;;;;;;;1.98;0.90;;;;;;;;;;20939113;28;20481;-84
2022/04/28 08:33:32;;;;;;;1.33;1.08;;;;;;;;;;21073164;28;20117;-84
2022/04/28 08:43:35;;;;;;;1.48;0.82;;;;;;;;;;21054906;28;20048;-84
2022/04/28 08:53:37;;;;;;;1.65;0.80;;;;;;;;;;21054901;28;20072;-84
2022/04/28 09:03:41;;;;;;;1.40;0.80;;;;;;;;;;21054045;28;20052;-84
2022/04/28 09:14:23;;;;;;;1.98;0.57;;;;;;;;;;21066004;28;20044;-84
2022/04/28 09:24:26;;;;;;;1.25;0.68;;;;;;;;;;21070412;28;20048;-84
2022/04/28 09:34:28;;;;;;;1.35;0.60;;;;;;;;;;21035814;28;20097;-84
2022/04/28 09:44:51;;;;;;;1.15;0.52;;;;;;;;;;21057160;28;20056;-84
2022/04/28 09:54:54;;;;;;;1.30;0.52;;;;;;;;;;21051083;28;20048;-84
2022/04/28 10:04:58;;;;;;;1.03;0.70;;;;;;;;;;21050386;28;20060;-85
2022/04/28 10:15:27;;;;;;;2.00;0.80;;;;;;;;;;21049342;28;20078;-84
2022/04/28 10:36:01;;;;;;;1.70;0.80;;;;;;;;;;21047086;28;20389;-85
2022/04/28 10:46:06;;;;;;;1.80;0.80;;;;;;;;;;21081869;28;20053;-85
2022/04/28 10:56:13;;;;;;;1.60;0.87;;;;;;;;;;21046048;28;20138;-85
2022/04/28 11:06:16;;;;;;;1.75;0.90;;;;;;;;;;21062696;28;20538;-85
2022/04/28 11:16:18;;;;;;;1.40;0.70;;;;;;;;;;21028384;28;20105;-85
2022/04/28 11:26:24;;;;;;;2.53;0.80;;;;;;;;;;21060326;28;20524;-84
2022/04/28 11:36:28;;;;;;;1.65;0.80;;;;;;;;;;21058601;28;20071;-85
2022/04/28 11:46:30;;;;;;;2.55;0.90;;;;;;;;;;21058827;28;20141;-84
2022/04/28 11:56:33;;;;;;;1.38;0.90;;;;;;;;;;21075875;28;20036;-85
2022/04/28 12:06:37;;;;;;;2.67;1.10;;;;;;;;;;21057397;28;20048;-86
2022/04/28 12:27:07;;;;;;;1.75;0.70;;;;;;;;;;21032601;28;20075;-84
2022/04/28 12:37:09;;;;;;;3.00;1.20;;;;;;;;;;21055505;28;20094;-84
2022/04/28 12:47:12;;;;;;;4.53;1.45;;;;;;;;;;21072432;28;20050;-85
2022/04/28 12:57:15;;;;;;;2.38;1.00;;;;;;;;;;21021323;28;20044;-84
2022/04/28 13:07:17;;;;;;;1.65;0.98;;;;;;;;;;21054126;28;20498;-85
2022/04/28 13:17:19;;;;;;;3.83;1.30;;;;;;;;;;21037234;28;20048;-84
2022/04/28 13:27:20;;;;;;;2.50;1.00;;;;;;;;;;21054468;28;20050;-84
2022/04/28 13:37:22;;;;;;;2.13;0.90;;;;;;;;;;21035987;28;20040;-84
2022/04/28 13:47:25;;;;;;;2.78;0.90;;;;;;;;;;21035827;28;20556;-84
2022/04/28 13:57:26;;;;;;;2.65;1.20;;;;;;;;;;21045810;28;20088;-84
2022/04/28 14:07:28;;;;;;;3.35;1.27;;;;;;;;;;21066943;28;20135;-84
2022/04/28 14:17:32;;;;;;;1.92;1.10;;;;;;;;;;21049841;28;20138;-83
2022/04/28 14:27:34;;;;;;;2.95;1.17;;;;;;;;;;21048947;28;20448;-84
2022/04/28 14:37:37;;;;;;;1.52;1.00;;;;;;;;;;21064431;28;20159;-84
2022/04/28 14:47:41;;;;;;;3.38;1.40;;;;;;;;;;21063767;28;20067;-84
2022/04/28 14:57:43;;;;;;;4.57;1.27;;;;;;;;;;21045953;28;20051;-84
2022/04/28 15:07:45;;;;;;;3.97;1.65;;;;;;;;;;21061712;28;20058;-85
2022/04/28 15:17:47;;;;;;;4.93;1.80;;;;;;;;;;21044718;28;20409;-84
2022/04/28 15:27:56;;;;;;;3.95;1.58;;;;;;;;;;21061421;28;20131;-84
2022/04/28 15:37:57;;;;;;;4.72;1.70;;;;;;;;;;21042777;28;20047;-85
2022/04/28 15:47:59;;;;;;;4.28;1.63;;;;;;;;;;21059209;28;20563;-84
2022/04/28 15:58:01;;;;;;;2.40;1.20;;;;;;;;;;21041790;28;20515;-84
2022/04/28 16:08:03;;;;;;;3.17;1.30;;;;;;;;;;21057134;28;20059;-85
2022/04/28 16:18:05;;;;;;;3.53;1.40;;;;;;;;;;21056034;28;20072;-85
2022/04/28 16:28:08;;;;;;;2.38;1.10;;;;;;;;;;21039310;28;20039;-86
2022/04/28 16:38:10;;;;;;;3.75;1.13;;;;;;;;;;21055796;28;20040;-85
2022/04/28 16:48:12;;;;;;;2.90;1.10;;;;;;;;;;21054765;28;20048;-85
2022/04/28 16:58:14;;;;;;;4.25;1.10;;;;;;;;;;21054528;28;20072;-85
2022/04/28 17:08:16;;;;;;;2.67;1.10;;;;;;;;;;21054346;28;20052;-85
2022/04/28 17:18:18;;;;;;;3.03;1.13;;;;;;;;;;21053955;28;20139;-85
2022/04/28 17:28:21;;;;;;;3.33;1.10;;;;;;;;;;21042854;28;20047;-84
2022/04/28 17:38:24;;;;;;;3.65;1.23;;;;;;;;;;21086741;28;20400;-84
2022/04/28 17:48:25;;;;;;;3.42;1.17;;;;;;;;;;21053180;28;20050;-84
2022/04/28 18:08:48;;;;;;;2.67;0.85;;;;;;;;;;21084931;28;20135;-84
2022/04/28 18:18:50;;;;;;;1.95;1.00;;;;;;;;;;21049512;28;20048;-84
2022/04/28 18:28:53;;;;;;;2.03;1.02;;;;;;;;;;21048876;28;20146;-84
2022/04/28 18:49:16;;;;;;;2.15;1.00;;;;;;;;;;21066958;28;20076;-84
2022/04/28 18:59:21;;;;;;;1.87;0.90;;;;;;;;;;21080689;28;20147;-84
2022/04/28 19:09:23;;;;;;;2.38;0.90;;;;;;;;;;21080006;28;20091;-84
2022/04/28 19:19:26;;;;;;;1.30;0.90;;;;;;;;;;21061394;28;20044;-83
2022/04/28 19:29:28;;;;;;;1.20;0.75;;;;;;;;;;21027345;28;20040;-85
2022/04/28 19:39:30;;;;;;;2.10;0.65;;;;;;;;;;21042509;28;20048;-84
2022/04/28 19:49:32;;;;;;;1.77;0.82;;;;;;;;;;21024843;28;20052;-84
2022/04/28 19:59:34;;;;;;;1.92;0.95;;;;;;;;;;21041192;28;20071;-84
2022/04/28 20:09:36;;;;;;;1.50;0.90;;;;;;;;;;21057066;28;20044;-84
2022/04/28 20:19:38;;;;;;;1.63;0.95;;;;;;;;;;21074403;28;20051;-84
2022/04/28 20:29:40;;;;;;;1.92;1.05;;;;;;;;;;21074049;28;20062;-84
2022/04/28 20:39:41;;;;;;;3.00;1.00;;;;;;;;;;21038490;28;20040;-84
2022/04/28 20:49:43;;;;;;;1.05;0.88;;;;;;;;;;21054457;28;20040;-84
2022/04/28 20:59:45;;;;;;;2.00;0.77;;;;;;;;;;21055741;28;20074;-84
2022/04/28 21:09:47;;;;;;;1.67;0.85;;;;;;;;;;21081867;28;20063;-84
2022/04/28 21:19:49;;;;;;;1.70;1.20;;;;;;;;;;21065143;28;20062;-84
2022/04/28 21:29:50;;;;;;;1.40;0.90;;;;;;;;;;21081176;28;20078;-84
2022/04/28 21:39:53;;;;;;;1.40;0.88;;;;;;;;;;21064113;28;20062;-84
2022/04/28 21:49:54;;;;;;;2.22;0.88;;;;;;;;;;21098169;28;20052;-84
2022/04/28 21:59:59;;;;;;;1.70;0.73;;;;;;;;;;21079947;28;20051;-85
2022/04/28 22:20:23;;;;;;;1.40;0.90;;;;;;;;;;21068741;28;20052;-84
2022/04/28 22:30:25;;;;;;;1.40;0.80;;;;;;;;;;21065905;28;20138;-84
2022/04/28 22:40:27;;;;;;;1.52;0.88;;;;;;;;;;21064686;28;20507;-84
2022/04/28 22:50:29;;;;;;;1.23;0.85;;;;;;;;;;21081809;28;20139;-84
2022/04/28 23:00:31;;;;;;;3.95;0.93;;;;;;;;;;21063202;28;20048;-84
2022/04/28 23:10:33;;;;;;;0.70;0.60;;;;;;;;;;21045439;28;20059;-84
2022/04/28 23:20:35;;;;;;;2.22;0.60;;;;;;;;;;21079123;28;20040;-84
2022/04/28 23:30:37;;;;;;;1.55;0.80;;;;;;;;;;21043669;28;20051;-84
2022/04/28 23:40:39;;;;;;;1.83;0.80;;;;;;;;;;21043316;28;20504;-84
2022/04/28 23:50:40;;;;;;;0.90;0.70;;;;;;;;;;21058845;28;20067;-84
